Belgrade, MO (63622)

12:12 AM CDT on April 20, 2018 (GMT -0500)
B Nixon, Hopewell | | Change Station
Active Advisory: Frost Advisory

Elev 853 ft 37.89 °N, 90.70 °W | Updated 16 seconds ago

Clear
Clear
37.0 °F
Feels Like 37 °F
N
1.7
Wind Variable Wind from NNW

Today
High -- | Low -- °F
--% Chance of Precip.
Yesterday
High -- | Low -- °F
Precip. -- in
Pressure 30.43 in
Visibility 10.0 miles
Clouds Clear
Windchill 37 °F
Dew Point 31 °F
Humidity 79%
Rainfall 0.00 in
Snow Depth Not available.
6:21 AM 7:43 PM
Waxing Crescent, 21% visible
METAR KFAM 200456Z AUTO 00000KT 10SM CLR 02/M01 A3041 RMK AO2 SLP304 T00221006 FZRANO
Pressure 30.43 in
Visibility 10.0 miles
Clouds Clear
Windchill 37 °F
Dew Point 31 °F
Humidity 79%
Rainfall 0.00 in
Snow Depth Not available.
6:21 AM 7:43 PM
Waxing Crescent, 21% visible
METAR KFAM 200456Z AUTO 00000KT 10SM CLR 02/M01 A3041 RMK AO2 SLP304 T00221006 FZRANO

Get Your Daily Forecast Email!

Thanks for signing up!

Be on the lookout for a verification email in your inbox.

You'll start receiving severe weather alerts in your inbox..

×

10-Day Weather Forecast

Almanac

Astronomy

Apr. 20, 2018 Rise Set
Actual Time
Civil Twilight
Nautical Twilight
Astronomical Twilight
Moon
Length of Visible Light
Length of Day
Tomorrow will be .
, % of the Moon is Illuminated

Today's Extremes

State Highs State Lows

Community

WunderPhotos

Category 6

Welcome to Category 6. This is the collective home for Weather Underground's featured writeups by Dr. Jeff Masters (right), Bob Henson (left), Chris Burt, and other regular contributors.

Nearby

Air Quality

  Air Quality AQ Index Pollutant
Not available.

Snow Depth

Station Depth Elevation

Earthquake Activity

City Distance Mag. Time & Date
Minimum magnitude displayed is 2.5.

Coastal Water Temperatures

Place Temperature

Stations

Nearby Weather Stations

Station Location Temp. Windchill Dew Point Humidity Wind Precip. Elev Updated Type
                   

Watches & Warnings

Frost Advisory
Issued: 3:18 PM CDT Apr. 19, 2018 – National Weather Service

... Frost advisory remains in effect from 1 am to 9 am CDT
Friday...

* timing... late tonight and early Friday morning.

* Temperatures... dropping to 32 to 35 degrees.

* Impacts... sensitive plants and trees may be damaged or killed.

Precautionary/preparedness actions...

A frost advisory means that widespread frost is expected. Those
with agricultural interests in the advisory area should protect
tender vegetation. Also, potted plants normally left outdoors
should be covered or brought inside away from the cold.



Gks